Time;durP1;ratioP1;P1;durP2;ratioP2;P2;SDS_P1;SDS_P2;PMS_P1;PMS_P2;Temp;Humidity;BMP_temperature;BMP_pressure;BME280_temperature;BME280_humidity;BME280_pressure;Samples;Min_cycle;Max_cycle;Signal;HPM_P1;HPM_P2
2023/04/05 00:00:53;;;;;;;1.73;0.70;;;19.20;49.30;;;;;;4919929;29;20131;-63
2023/04/05 00:03:18;;;;;;;2.70;0.77;;;19.20;49.20;;;;;;4902590;29;20472;-63
2023/04/05 00:05:44;;;;;;;2.67;1.10;;;19.20;49.20;;;;;;4919508;29;20559;-63
2023/04/05 00:08:22;;;;;;;1.77;0.80;;;19.10;49.10;;;;;;4887651;29;20094;-63
2023/04/05 00:10:47;;;;;;;1.57;0.77;;;19.10;49.10;;;;;;4920300;29;20062;-63
2023/04/05 00:13:13;;;;;;;1.45;0.70;;;19.10;49.20;;;;;;4918782;29;20060;-63
2023/04/05 00:15:38;;;;;;;2.55;0.90;;;19.10;49.10;;;;;;4919764;29;20091;-63
2023/04/05 00:18:05;;;;;;;2.42;0.88;;;19.10;49.10;;;;;;4919753;29;20105;-63
2023/04/05 00:20:30;;;;;;;3.33;1.20;;;19.10;49.10;;;;;;4918835;29;20048;-63
2023/04/05 00:22:56;;;;;;;2.22;0.77;;;19.10;49.00;;;;;;4919982;29;20095;-63
2023/04/05 00:25:22;;;;;;;2.30;0.80;;;19.10;49.00;;;;;;4919674;29;20526;-63
2023/04/05 00:27:47;;;;;;;1.20;0.52;;;19.10;49.00;;;;;;4918867;29;20448;-63
2023/04/05 00:30:19;;;;;;;2.00;0.70;;;19.10;49.00;;;;;;4919219;29;20044;-63
2023/04/05 00:32:49;;;;;;;4.10;0.57;;;19.00;48.90;;;;;;4919830;29;20051;-63
2023/04/05 00:35:15;;;;;;;2.00;0.88;;;19.10;49.00;;;;;;4919327;29;20048;-63
2023/04/05 00:37:41;;;;;;;1.55;0.70;;;19.00;48.90;;;;;;4919436;29;20055;-63
2023/04/05 00:40:07;;;;;;;1.90;0.70;;;19.00;48.90;;;;;;4918695;29;20048;-63
2023/04/05 00:42:33;;;;;;;1.88;0.68;;;19.00;48.80;;;;;;4902228;29;20096;-63
2023/04/05 00:44:59;;;;;;;3.15;0.80;;;19.00;48.80;;;;;;4902481;29;20048;-63
2023/04/05 00:47:24;;;;;;;1.50;0.70;;;19.00;48.70;;;;;;4901353;29;20044;-63
2023/04/05 00:49:50;;;;;;;2.25;0.90;;;19.00;48.70;;;;;;4902470;29;20051;-63
2023/04/05 00:52:17;;;;;;;2.00;0.80;;;19.00;48.70;;;;;;4902290;29;20095;-63
2023/04/05 00:54:42;;;;;;;3.80;0.80;;;19.00;48.60;;;;;;4918426;29;20465;-62
2023/04/05 00:57:08;;;;;;;2.47;0.70;;;19.00;48.60;;;;;;4886521;29;20055;-63
2023/04/05 00:59:33;;;;;;;1.30;0.60;;;19.00;48.60;;;;;;4918990;29;20032;-63
2023/04/05 01:02:15;;;;;;;2.70;0.70;;;19.00;48.60;;;;;;4918142;29;20044;-63
2023/04/05 01:04:48;;;;;;;2.15;0.77;;;19.00;48.60;;;;;;4918826;29;20100;-63
2023/04/05 01:07:25;;;;;;;1.48;0.68;;;19.00;48.60;;;;;;4917952;29;20586;-63
2023/04/05 01:09:55;;;;;;;1.83;0.65;;;19.00;48.50;;;;;;4918265;29;20522;-63
2023/04/05 01:12:22;;;;;;;1.70;0.80;;;19.00;48.50;;;;;;4901542;29;20067;-63
2023/04/05 01:14:53;;;;;;;1.65;0.75;;;19.00;48.40;;;;;;4919260;29;20063;-63
2023/04/05 01:17:23;;;;;;;2.90;0.80;;;19.00;48.40;;;;;;4917939;29;20047;-63
2023/04/05 01:19:52;;;;;;;2.88;0.93;;;19.00;48.30;;;;;;4901920;29;20048;-63
2023/04/05 01:22:26;;;;;;;1.90;0.80;;;19.00;48.30;;;;;;4917495;29;20051;-63
2023/04/05 01:25:01;;;;;;;1.40;0.55;;;19.00;48.30;;;;;;4901695;29;20052;-63
2023/04/05 01:28:05;;;;;;;1.40;0.50;;;19.00;49.00;;;;;;4886059;29;20051;-63
2023/04/05 01:30:33;;;;;;;1.77;1.08;;;19.00;48.30;;;;;;4913658;29;20080;-63
2023/04/05 01:32:59;;;;;;;1.13;0.60;;;19.00;48.30;;;;;;4902227;29;20103;-63
2023/04/05 01:35:49;;;;;;;1.42;0.60;;;19.00;48.30;;;;;;4918000;29;20048;-62
2023/04/05 01:38:17;;;;;;;2.47;0.70;;;19.00;48.30;;;;;;4917504;29;20070;-63
2023/04/05 01:40:42;;;;;;;2.03;0.80;;;19.00;48.40;;;;;;4918625;29;20051;-63
2023/04/05 01:43:15;;;;;;;0.85;0.55;;;19.00;48.40;;;;;;4917297;29;20044;-63
2023/04/05 01:45:41;;;;;;;1.40;0.50;;;19.00;48.40;;;;;;4901539;29;20052;-63
2023/04/05 01:48:07;;;;;;;1.40;0.65;;;19.00;48.30;;;;;;4918372;29;20127;-63
2023/04/05 01:50:32;;;;;;;1.67;0.73;;;19.10;48.40;;;;;;4917614;29;20130;-63
2023/04/05 01:52:58;;;;;;;3.20;0.80;;;19.10;48.30;;;;;;4918102;29;20044;-63
2023/04/05 01:55:23;;;;;;;2.35;0.80;;;19.00;48.30;;;;;;4901132;29;20055;-63
2023/04/05 01:57:49;;;;;;;1.48;0.70;;;19.10;48.30;;;;;;4917495;29;20467;-63
2023/04/05 02:00:15;;;;;;;2.00;0.85;;;19.10;48.30;;;;;;4919090;29;20392;-62
2023/04/05 02:02:40;;;;;;;1.85;0.70;;;19.10;48.20;;;;;;4901458;29;20135;-62
2023/04/05 02:05:06;;;;;;;1.90;0.98;;;19.10;48.20;;;;;;4916820;29;20077;-63
2023/04/05 02:07:32;;;;;;;1.80;0.90;;;19.10;48.20;;;;;;4901011;29;20484;-63
2023/04/05 02:09:57;;;;;;;2.55;1.00;;;19.10;48.10;;;;;;4917767;29;20048;-62
2023/04/05 02:12:23;;;;;;;2.00;0.85;;;19.10;48.10;;;;;;4916663;29;20056;-62
2023/04/05 02:14:50;;;;;;;2.85;1.05;;;19.10;48.10;;;;;;4900789;29;20408;-62
2023/04/05 02:17:16;;;;;;;1.77;0.80;;;19.10;48.10;;;;;;4899853;29;20607;-63
2023/04/05 02:19:45;;;;;;;1.75;0.80;;;19.10;48.10;;;;;;4917012;29;20040;-63
2023/04/05 02:22:10;;;;;;;;;;;19.10;48.00;;;;;;4917951;29;20465;-62
2023/04/05 02:24:36;;;;;;;1.90;1.10;;;19.10;48.00;;;;;;4917617;29;20066;-62
2023/04/05 02:27:01;;;;;;;2.20;1.00;;;19.10;48.10;;;;;;4916969;29;20504;-62
2023/04/05 02:29:27;;;;;;;3.90;1.30;;;19.10;48.00;;;;;;4917353;29;20388;-62
2023/04/05 02:31:53;;;;;;;1.95;1.15;;;19.10;48.00;;;;;;4917400;29;20127;-62
2023/04/05 02:34:18;;;;;;;1.77;0.90;;;19.10;47.90;;;;;;4899285;29;20040;-62
2023/04/05 02:36:44;;;;;;;2.00;1.00;;;19.10;47.90;;;;;;4900356;29;20040;-62
2023/04/05 02:39:10;;;;;;;2.00;0.93;;;19.10;47.90;;;;;;4917059;29;20115;-62
2023/04/05 02:41:35;;;;;;;2.20;1.00;;;19.10;47.90;;;;;;4916579;29;20044;-62
2023/04/05 02:44:01;;;;;;;1.83;1.02;;;19.10;47.90;;;;;;4917494;29;20571;-62
2023/04/05 02:46:27;;;;;;;2.03;1.08;;;19.10;47.90;;;;;;4899564;29;20044;-63
2023/04/05 02:48:52;;;;;;;1.63;0.93;;;19.20;48.00;;;;;;4917004;29;20048;-62
2023/04/05 02:51:18;;;;;;;1.48;0.90;;;19.20;47.90;;;;;;4899740;29;20127;-63
2023/04/05 02:53:43;;;;;;;1.90;1.00;;;19.20;47.90;;;;;;4916130;29;20048;-62
2023/04/05 02:56:12;;;;;;;1.88;1.40;;;19.20;47.90;;;;;;4917003;29;20041;-63
2023/04/05 02:58:38;;;;;;;2.13;1.20;;;19.20;47.90;;;;;;4917006;29;20404;-63
2023/04/05 03:01:06;;;;;;;1.67;0.80;;;19.20;47.90;;;;;;4916203;29;20115;-62
2023/04/05 03:03:33;;;;;;;1.25;0.85;;;19.20;47.90;;;;;;4917083;29;20048;-62
2023/04/05 03:06:00;;;;;;;2.53;0.73;;;19.30;47.90;;;;;;4916761;29;20044;-62
2023/04/05 03:08:27;;;;;;;3.03;1.17;;;19.20;47.90;;;;;;4916010;29;20056;-63
2023/04/05 03:10:53;;;;;;;2.78;0.90;;;19.30;47.90;;;;;;4917143;29;20051;-63
2023/04/05 03:13:18;;;;;;;2.90;1.08;;;19.30;47.90;;;;;;4916381;29;20060;-62
2023/04/05 03:15:44;;;;;;;3.42;1.33;;;19.30;47.90;;;;;;4916031;29;20052;-63
2023/04/05 03:18:10;;;;;;;3.03;1.00;;;19.30;47.90;;;;;;4899720;29;20044;-63
2023/04/05 03:20:39;;;;;;;2.00;0.85;;;19.30;47.90;;;;;;4916607;29;20048;-63
2023/04/05 03:23:08;;;;;;;2.33;1.05;;;19.30;47.90;;;;;;4915485;29;20048;-63
2023/04/05 03:25:37;;;;;;;1.38;0.68;;;19.40;47.90;;;;;;4916574;29;20055;-63
2023/04/05 03:28:07;;;;;;;1.70;0.90;;;19.40;47.90;;;;;;4899610;29;20116;-62
2023/04/05 03:30:33;;;;;;;1.20;0.80;;;19.40;47.90;;;;;;4899113;29;20138;-63
2023/04/05 03:33:02;;;;;;;2.50;0.90;;;19.40;47.90;;;;;;4916779;29;20475;-62
2023/04/05 03:35:28;;;;;;;1.90;0.90;;;19.40;47.90;;;;;;4916498;29;20051;-63
2023/04/05 03:37:54;;;;;;;3.05;1.05;;;19.40;47.80;;;;;;4898802;29;20055;-63
2023/04/05 03:40:24;;;;;;;2.22;1.02;;;19.40;47.90;;;;;;4899439;29;20400;-63
2023/04/05 03:42:49;;;;;;;2.08;0.88;;;19.50;47.90;;;;;;4915793;29;20048;-62
2023/04/05 03:45:15;;;;;;;2.33;0.98;;;19.50;47.90;;;;;;4916365;29;20040;-63
2023/04/05 03:47:41;;;;;;;2.13;1.00;;;19.50;47.90;;;;;;4899396;29;20048;-63
2023/04/05 03:50:07;;;;;;;1.80;0.90;;;19.50;47.90;;;;;;4915315;29;20147;-63
2023/04/05 03:52:33;;;;;;;2.08;0.90;;;19.50;47.90;;;;;;4899387;29;20060;-63
2023/04/05 03:54:58;;;;;;;2.40;1.02;;;19.50;47.80;;;;;;4916665;29;20037;-62
2023/04/05 03:57:24;;;;;;;2.00;1.00;;;19.50;47.90;;;;;;4915247;29;20056;-62
2023/04/05 03:59:50;;;;;;;2.17;1.10;;;19.50;47.80;;;;;;4916201;29;20052;-63
2023/04/05 04:02:15;;;;;;;1.65;1.00;;;19.60;47.90;;;;;;4908978;29;20412;-62
2023/04/05 04:04:41;;;;;;;1.45;0.88;;;19.60;47.80;;;;;;4932833;29;20411;-63
2023/04/05 04:07:06;;;;;;;1.48;0.80;;;19.60;47.90;;;;;;4934462;29;20051;-63
2023/04/05 04:09:32;;;;;;;2.65;0.80;;;19.60;47.80;;;;;;4935116;29;20044;-63
2023/04/05 04:11:58;;;;;;;2.05;1.00;;;19.60;47.90;;;;;;4933989;29;20066;-62
2023/04/05 04:14:23;;;;;;;1.92;0.90;;;19.60;47.80;;;;;;4934822;29;20052;-63
2023/04/05 04:16:49;;;;;;;1.77;1.02;;;19.60;47.80;;;;;;4934867;29;20043;-63
2023/04/05 04:19:19;;;;;;;2.45;1.05;;;19.60;47.80;;;;;;4917127;29;20472;-63
2023/04/05 04:21:50;;;;;;;1.52;0.90;;;19.60;47.80;;;;;;4917522;29;20044;-62
2023/04/05 04:24:18;;;;;;;1.85;0.90;;;19.70;47.80;;;;;;4918245;29;20443;-62
2023/04/05 04:26:47;;;;;;;1.98;0.90;;;19.70;47.80;;;;;;4917028;29;20051;-62
2023/04/05 04:29:15;;;;;;;1.63;0.90;;;19.70;47.80;;;;;;4934653;29;20373;-62
2023/04/05 04:31:44;;;;;;;1.90;0.85;;;19.70;47.80;;;;;;4934603;29;20470;-63
2023/04/05 04:34:10;;;;;;;2.13;0.98;;;19.70;47.70;;;;;;4933901;29;20052;-62
2023/04/05 04:36:38;;;;;;;1.67;0.90;;;19.70;47.70;;;;;;4934538;29;20052;-61
2023/04/05 04:39:04;;;;;;;2.23;0.70;;;19.70;47.70;;;;;;4917199;29;20039;-63
2023/04/05 04:41:32;;;;;;;1.88;0.90;;;19.70;47.70;;;;;;4937671;29;20403;-63
2023/04/05 04:44:01;;;;;;;2.17;0.90;;;19.70;47.70;;;;;;4938676;29;20048;-62
2023/04/05 04:46:29;;;;;;;1.73;0.80;;;19.70;47.70;;;;;;4926933;29;20123;-62
2023/04/05 04:48:56;;;;;;;2.13;1.10;;;19.80;47.70;;;;;;4938391;29;20043;-62
2023/04/05 04:51:22;;;;;;;1.80;0.93;;;19.80;47.70;;;;;;4938269;29;20039;-63
2023/04/05 04:53:47;;;;;;;0.82;0.70;;;19.80;47.70;;;;;;4937215;29;20495;-62
2023/04/05 04:56:13;;;;;;;1.58;0.80;;;19.80;47.70;;;;;;4921247;29;20047;-62
2023/04/05 04:58:38;;;;;;;1.33;0.85;;;19.80;47.70;;;;;;4920930;29;20460;-63
2023/04/05 05:01:08;;;;;;;2.13;0.80;;;19.80;47.70;;;;;;4919982;29;20040;-63
2023/04/05 05:03:35;;;;;;;2.40;0.70;;;19.80;47.70;;;;;;4937969;29;20095;-62
2023/04/05 05:06:02;;;;;;;2.13;0.80;;;19.80;47.70;;;;;;4938134;29;20043;-63
2023/04/05 05:08:27;;;;;;;1.70;0.85;;;19.80;47.60;;;;;;4936919;29;20411;-63
2023/04/05 05:10:53;;;;;;;2.30;1.00;;;19.80;47.60;;;;;;4938121;29;20043;-63
2023/04/05 05:13:18;;;;;;;2.30;0.88;;;19.80;47.60;;;;;;4920163;29;20059;-62
2023/04/05 05:15:44;;;;;;;2.38;0.80;;;19.90;47.60;;;;;;4919904;29;20050;-62
2023/04/05 05:18:11;;;;;;;1.42;0.70;;;19.90;47.60;;;;;;4920472;29;20138;-62
2023/04/05 05:20:36;;;;;;;2.35;0.85;;;19.90;47.60;;;;;;4922971;29;20048;-62
2023/04/05 05:23:04;;;;;;;1.63;0.80;;;19.90;47.60;;;;;;4928563;29;20055;-62
2023/04/05 05:25:29;;;;;;;2.37;0.90;;;19.90;47.60;;;;;;4920440;29;20074;-62
2023/04/05 05:27:55;;;;;;;1.40;0.80;;;19.90;47.60;;;;;;4920355;29;20407;-62
2023/04/05 05:30:20;;;;;;;1.95;0.90;;;19.90;47.60;;;;;;4936318;29;20464;-62
2023/04/05 05:32:47;;;;;;;1.73;0.90;;;19.90;47.60;;;;;;4937570;29;20043;-62
2023/04/05 05:35:12;;;;;;;3.25;0.80;;;19.90;47.50;;;;;;4936886;29;20511;-62
2023/04/05 05:37:38;;;;;;;1.88;0.93;;;19.90;47.50;;;;;;4936600;29;20047;-62
2023/04/05 05:40:04;;;;;;;2.53;1.17;;;19.90;47.40;;;;;;4937390;29;20036;-62
2023/04/05 05:42:31;;;;;;;2.90;0.90;;;19.90;47.50;;;;;;4936127;29;20047;-62
2023/04/05 05:44:59;;;;;;;2.50;0.90;;;20.00;47.60;;;;;;4937312;29;20483;-62
2023/04/05 05:47:24;;;;;;;2.67;0.80;;;20.00;47.70;;;;;;4920052;29;20543;-62
2023/04/05 05:49:50;;;;;;;2.20;0.93;;;20.00;47.70;;;;;;4936491;29;20079;-62
2023/04/05 05:52:15;;;;;;;2.95;0.88;;;20.00;47.70;;;;;;4936313;29;20039;-61
2023/04/05 05:54:41;;;;;;;2.53;0.80;;;20.00;47.70;;;;;;4937260;29;20067;-61
2023/04/05 05:57:06;;;;;;;2.88;0.82;;;20.00;47.70;;;;;;4918576;29;20032;-65
2023/04/05 05:59:32;;;;;;;2.47;0.90;;;20.00;47.70;;;;;;4919987;29;20058;-62
2023/04/05 06:01:57;;;;;;;2.05;0.98;;;20.00;47.80;;;;;;4936636;29;20138;-62
2023/04/05 06:04:23;;;;;;;3.22;1.08;;;20.10;47.90;;;;;;4919202;29;20500;-62
2023/04/05 06:06:49;;;;;;;2.42;0.80;;;20.10;47.90;;;;;;4937050;29;20040;-62
2023/04/05 06:09:14;;;;;;;1.70;0.88;;;20.10;48.00;;;;;;4936377;29;20509;-62
2023/04/05 06:11:40;;;;;;;4.68;1.10;;;20.10;48.00;;;;;;4935858;29;20054;-62
2023/04/05 06:14:06;;;;;;;4.70;1.10;;;20.10;48.00;;;;;;4936188;29;20142;-59
2023/04/05 06:16:34;;;;;;;4.22;0.93;;;20.10;48.00;;;;;;4937085;29;20343;-62
2023/04/05 06:19:00;;;;;;;4.63;0.90;;;20.10;48.10;;;;;;4935852;29;20052;-61
2023/04/05 06:21:26;;;;;;;2.28;0.88;;;20.20;49.00;;;;;;4919253;29;20091;-61
2023/04/05 06:23:51;;;;;;;2.03;0.85;;;20.20;48.40;;;;;;4936346;29;20531;-61
2023/04/05 06:26:22;;;;;;;2.83;0.90;;;20.20;48.60;;;;;;4934845;29;20119;-60
2023/04/05 06:28:48;;;;;;;3.65;0.85;;;20.20;48.80;;;;;;4934060;29;20083;-60
2023/04/05 06:31:15;;;;;;;4.05;1.00;;;20.20;49.00;;;;;;4936224;29;20044;-60
2023/04/05 06:33:41;;;;;;;5.20;1.15;;;20.20;49.10;;;;;;4923630;29;20047;-60
2023/04/05 06:36:07;;;;;;;1.92;1.15;;;20.30;49.90;;;;;;4917055;29;20047;-60
2023/04/05 06:38:32;;;;;;;2.33;0.98;;;20.20;49.20;;;;;;4900011;29;20044;-61
2023/04/05 06:40:58;;;;;;;1.35;0.80;;;20.30;49.30;;;;;;4900137;29;20040;-60
2023/04/05 06:43:23;;;;;;;3.75;1.10;;;20.30;49.30;;;;;;4917235;29;20044;-61
2023/04/05 06:45:49;;;;;;;2.17;1.02;;;20.30;49.30;;;;;;4899584;29;20048;-61
2023/04/05 06:48:15;;;;;;;5.10;1.10;;;20.30;49.30;;;;;;4916956;29;20090;-61
2023/04/05 06:50:40;;;;;;;2.25;1.00;;;20.40;49.30;;;;;;4917000;29;20089;-61
2023/04/05 06:53:06;;;;;;;2.53;0.80;;;20.40;49.30;;;;;;4899348;29;20048;-61
2023/04/05 06:55:32;;;;;;;2.10;0.93;;;20.40;49.20;;;;;;4917247;29;20086;-62
2023/04/05 06:57:57;;;;;;;3.20;0.98;;;20.40;49.20;;;;;;4900499;29;20052;-61
2023/04/05 07:00:23;;;;;;;3.65;1.00;;;20.40;49.20;;;;;;4915921;29;20395;-61
2023/04/05 07:02:49;;;;;;;3.33;0.98;;;20.40;49.10;;;;;;4899712;29;20147;-62
2023/04/05 07:05:14;;;;;;;3.35;0.90;;;20.40;49.10;;;;;;4899014;29;20051;-62
2023/04/05 07:07:42;;;;;;;4.57;0.95;;;20.40;49.10;;;;;;4916066;29;20535;-62
2023/04/05 07:10:07;;;;;;;3.20;1.08;;;20.50;49.10;;;;;;4916576;29;20047;-60
2023/04/05 07:12:33;;;;;;;2.70;0.88;;;20.40;49.10;;;;;;4916708;29;20103;-60
2023/04/05 07:14:59;;;;;;;2.42;0.98;;;20.40;49.10;;;;;;4915789;29;20115;-60
2023/04/05 07:17:24;;;;;;;3.50;0.90;;;20.40;49.10;;;;;;4916127;29;20530;-60
2023/04/05 07:19:50;;;;;;;1.95;0.82;;;20.40;49.10;;;;;;4916760;29;20040;-60
2023/04/05 07:22:15;;;;;;;1.75;0.80;;;20.40;49.10;;;;;;4915656;29;20051;-61
2023/04/05 07:24:43;;;;;;;3.17;0.90;;;20.50;49.20;;;;;;4916408;29;20051;-60
2023/04/05 07:27:08;;;;;;;3.22;0.90;;;20.50;49.10;;;;;;4916636;29;20115;-60
2023/04/05 07:29:39;;;;;;;2.28;0.90;;;20.40;49.00;;;;;;4915710;29;20136;-60
2023/04/05 07:32:07;;;;;;;2.53;0.77;;;20.50;48.90;;;;;;4916494;29;20091;-61
2023/04/05 07:34:34;;;;;;;3.22;0.82;;;20.50;49.00;;;;;;4916695;29;20052;-61
2023/04/05 07:36:59;;;;;;;2.53;0.68;;;20.50;49.00;;;;;;4898797;29;20099;-61
2023/04/05 07:39:25;;;;;;;2.88;0.75;;;20.50;49.00;;;;;;4916044;29;20052;-61
2023/04/05 07:41:51;;;;;;;4.68;1.05;;;20.40;48.90;;;;;;4915636;29;20056;-61
2023/04/05 07:44:17;;;;;;;2.03;0.73;;;20.50;48.90;;;;;;4916389;29;20044;-61
2023/04/05 07:46:45;;;;;;;2.78;0.80;;;20.40;48.80;;;;;;4916865;29;20056;-62
2023/04/05 07:49:11;;;;;;;2.35;0.98;;;20.50;49.00;;;;;;4898225;29;20040;-61
2023/04/05 07:51:37;;;;;;;3.78;0.95;;;20.40;48.80;;;;;;4916438;29;20130;-61
2023/04/05 07:54:05;;;;;;;4.72;0.93;;;20.50;48.80;;;;;;4916170;29;20048;-61
2023/04/05 07:56:31;;;;;;;;;;;20.50;48.80;;;;;;4899114;29;20047;-61
2023/04/05 07:58:57;;;;;;;4.43;0.90;;;20.40;48.70;;;;;;4916455;29;19923;-61
2023/04/05 08:01:26;;;;;;;3.83;0.80;;;20.40;48.70;;;;;;4915885;29;20143;-61
2023/04/05 08:03:52;;;;;;;4.00;0.95;;;20.40;48.70;;;;;;4915556;29;20044;-62
2023/04/05 08:06:17;;;;;;;2.88;0.80;;;20.40;48.70;;;;;;4915824;29;20382;-61
2023/04/05 08:08:44;;;;;;;4.05;0.88;;;20.40;48.70;;;;;;4916179;29;20055;-61
2023/04/05 08:11:09;;;;;;;3.15;0.95;;;20.40;48.70;;;;;;4898672;29;20605;-61
2023/04/05 08:13:37;;;;;;;2.35;0.82;;;20.50;48.90;;;;;;4916018;29;20131;-61
2023/04/05 08:16:03;;;;;;;1.70;0.90;;;20.50;49.00;;;;;;4918857;29;20072;-61
2023/04/05 08:18:28;;;;;;;2.25;0.65;;;20.50;49.10;;;;;;4919296;29;20063;-61
2023/04/05 08:20:54;;;;;;;3.72;0.90;;;20.50;49.10;;;;;;4927861;29;20056;-61
2023/04/05 08:23:20;;;;;;;3.70;0.90;;;20.50;49.10;;;;;;4930231;29;20052;-61
2023/04/05 08:25:46;;;;;;;2.38;0.80;;;20.50;49.20;;;;;;4916623;29;20065;-62
2023/04/05 08:28:11;;;;;;;2.80;0.70;;;20.50;49.20;;;;;;4930354;29;20056;-61
2023/04/05 08:30:37;;;;;;;2.28;0.70;;;20.50;49.20;;;;;;4915199;29;20048;-60
2023/04/05 08:33:03;;;;;;;2.28;0.88;;;20.50;49.20;;;;;;4933225;29;20059;-61
2023/04/05 08:35:29;;;;;;;3.60;0.93;;;20.60;49.30;;;;;;4938167;29;20039;-62
2023/04/05 08:37:55;;;;;;;2.83;0.90;;;20.50;49.10;;;;;;4938583;29;20059;-62
2023/04/05 08:40:21;;;;;;;1.50;0.80;;;20.60;49.10;;;;;;4937054;29;20040;-62
2023/04/05 08:42:56;;;;;;;3.65;1.00;;;20.50;49.10;;;;;;4921742;29;20054;-62
2023/04/05 08:45:22;;;;;;;2.28;0.90;;;20.60;49.10;;;;;;4937037;29;20403;-62
2023/04/05 08:47:47;;;;;;;3.90;0.60;;;20.60;49.10;;;;;;4905982;29;20519;-62
2023/04/05 08:50:13;;;;;;;3.50;1.10;;;20.60;49.10;;;;;;4920876;29;20487;-62
2023/04/05 08:52:40;;;;;;;2.83;0.90;;;20.60;49.10;;;;;;4904873;29;20404;-61
2023/04/05 08:55:06;;;;;;;1.92;0.82;;;20.60;49.10;;;;;;4905286;29;20054;-61
2023/04/05 08:57:32;;;;;;;4.15;0.90;;;20.60;49.10;;;;;;4921151;29;20044;-61
2023/04/05 08:59:58;;;;;;;3.47;0.70;;;20.60;49.10;;;;;;4937280;29;20052;-61
2023/04/05 09:02:23;;;;;;;3.58;0.68;;;20.60;49.10;;;;;;4921074;29;20119;-61
2023/04/05 09:04:49;;;;;;;2.65;0.60;;;20.60;49.10;;;;;;4920250;29;20040;-60
2023/04/05 09:07:15;;;;;;;1.75;0.60;;;20.60;49.10;;;;;;4920319;29;20058;-60
2023/04/05 09:09:47;;;;;;;1.45;0.68;;;20.60;49.20;;;;;;4921323;29;20107;-61
2023/04/05 09:12:13;;;;;;;2.08;0.70;;;20.70;49.30;;;;;;4904927;29;20067;-61
2023/04/05 09:14:38;;;;;;;2.70;0.63;;;20.70;49.20;;;;;;4937240;29;20051;-63
2023/04/05 09:17:04;;;;;;;3.97;0.80;;;20.70;49.30;;;;;;4920918;29;20048;-63
2023/04/05 09:19:29;;;;;;;1.77;0.80;;;20.70;49.20;;;;;;4904639;29;20102;-63
2023/04/05 09:22:05;;;;;;;2.45;0.70;;;20.70;49.10;;;;;;4936340;29;20044;-63
2023/04/05 09:24:33;;;;;;;1.08;0.60;;;20.70;48.80;;;;;;4937790;29;20123;-62
2023/04/05 09:27:25;;;;;;;1.65;0.80;;;20.70;48.60;;;;;;4936936;29;20040;-62
2023/04/05 09:29:50;;;;;;;1.23;0.65;;;20.70;48.20;;;;;;4934019;29;20056;-63
2023/04/05 09:32:20;;;;;;;1.95;0.80;;;20.60;48.00;;;;;;4937352;29;20098;-63
2023/04/05 09:34:46;;;;;;;4.55;1.30;;;20.60;47.70;;;;;;4936952;29;20083;-63
2023/04/05 09:37:18;;;;;;;6.15;1.02;;;20.60;47.60;;;;;;4937374;29;20115;-63
2023/04/05 09:39:45;;;;;;;4.82;1.33;;;20.60;47.30;;;;;;4920705;29;20440;-64
2023/04/05 09:42:18;;;;;;;3.95;1.33;;;20.60;47.20;;;;;;4918126;29;20074;-63
2023/04/05 09:45:01;;;;;;;4.47;1.20;;;20.60;47.20;;;;;;4919622;29;20466;-63
2023/04/05 09:47:31;;;;;;;4.68;1.27;;;20.60;47.30;;;;;;4919927;29;20105;-63
2023/04/05 09:50:18;;;;;;;5.13;1.20;;;20.60;47.30;;;;;;4936997;29;20054;-63
2023/04/05 09:52:43;;;;;;;2.97;1.08;;;20.60;47.90;;;;;;4920592;29;20083;-63
2023/04/05 09:55:09;;;;;;;3.92;1.13;;;20.60;47.20;;;;;;4936984;29;20076;-64
2023/04/05 09:57:39;;;;;;;3.55;1.10;;;20.60;47.30;;;;;;4936830;29;20099;-64
2023/04/05 10:00:05;;;;;;;3.20;1.30;;;20.70;47.40;;;;;;4937193;29;20044;-63
2023/04/05 10:02:37;;;;;;;2.70;0.90;;;20.70;47.40;;;;;;4919325;29;20095;-64
2023/04/05 10:05:12;;;;;;;3.30;0.90;;;20.70;47.40;;;;;;4919304;29;20488;-64
2023/04/05 10:07:41;;;;;;;3.20;0.98;;;20.70;47.40;;;;;;4937256;29;20448;-64
2023/04/05 10:10:07;;;;;;;2.75;0.80;;;20.70;47.40;;;;;;4919183;29;20044;-65
2023/04/05 10:12:33;;;;;;;3.45;1.00;;;20.70;47.30;;;;;;4937003;29;20094;-64
2023/04/05 10:14:59;;;;;;;3.83;1.00;;;20.70;47.30;;;;;;4920174;29;20079;-63
2023/04/05 10:17:43;;;;;;;4.05;1.08;;;20.70;47.30;;;;;;4918882;29;20451;-63
2023/04/05 10:20:19;;;;;;;3.97;0.90;;;20.70;47.10;;;;;;4936523;29;20054;-63
2023/04/05 10:22:50;;;;;;;5.25;1.17;;;20.70;47.00;;;;;;4937016;29;20084;-63
2023/04/05 10:25:44;;;;;;;2.15;0.75;;;20.70;47.00;;;;;;4935985;29;20102;-63
2023/04/05 10:28:11;;;;;;;3.63;1.00;;;20.60;46.90;;;;;;4919469;29;20047;-63
2023/04/05 10:30:43;;;;;;;3.42;0.93;;;20.70;47.00;;;;;;4936454;29;20055;-64
2023/04/05 10:33:30;;;;;;;2.60;0.65;;;20.60;47.00;;;;;;4919532;29;20059;-63
2023/04/05 10:36:07;;;;;;;5.07;1.00;;;20.60;46.90;;;;;;4936356;29;20126;-61
2023/04/05 10:38:55;;;;;;;3.28;0.98;;;20.70;46.90;;;;;;4935529;29;20050;-62
2023/04/05 10:41:21;;;;;;;2.60;0.90;;;20.60;46.70;;;;;;4905658;29;20510;-63
2023/04/05 10:43:47;;;;;;;3.50;0.90;;;20.60;46.70;;;;;;4919620;29;20082;-63
2023/04/05 10:46:12;;;;;;;2.50;0.90;;;20.60;46.70;;;;;;4902865;29;20044;-63
2023/04/05 10:48:50;;;;;;;3.10;0.73;;;20.60;46.70;;;;;;4936274;29;20488;-63
2023/04/05 10:51:15;;;;;;;2.90;1.00;;;20.60;46.80;;;;;;4935611;29;20051;-63
2023/04/05 10:53:41;;;;;;;4.20;1.00;;;20.60;46.90;;;;;;4902700;29;20399;-63
2023/04/05 10:56:06;;;;;;;1.75;0.70;;;20.60;47.00;;;;;;4919201;29;20126;-63
2023/04/05 10:58:32;;;;;;;3.70;0.80;;;20.60;47.10;;;;;;4919493;29;20400;-63
2023/04/05 11:00:58;;;;;;;1.88;0.80;;;20.60;47.20;;;;;;4935436;29;20063;-63
2023/04/05 11:03:49;;;;;;;1.40;0.70;;;20.70;47.20;;;;;;4918882;29;20047;-63
2023/04/05 11:06:31;;;;;;;2.72;0.82;;;20.60;46.90;;;;;;4934872;29;20135;-63
2023/04/05 11:09:05;;;;;;;2.60;0.90;;;20.70;46.80;;;;;;4936352;29;20059;-63
2023/04/05 11:11:38;;;;;;;2.33;0.90;;;20.70;46.80;;;;;;4936235;29;20044;-63
2023/04/05 11:14:20;;;;;;;2.72;0.90;;;20.60;46.70;;;;;;4902567;29;20066;-63
2023/04/05 11:16:47;;;;;;;2.83;0.90;;;20.60;46.70;;;;;;4921406;29;20048;-62
2023/04/05 11:19:16;;;;;;;2.70;1.20;;;20.60;46.70;;;;;;4918842;29;20062;-63
2023/04/05 11:21:43;;;;;;;1.80;0.90;;;20.60;46.70;;;;;;4934882;29;20415;-63
2023/04/05 11:24:11;;;;;;;3.22;0.88;;;20.60;46.70;;;;;;4918837;29;20564;-63
2023/04/05 11:26:39;;;;;;;;;;;20.60;46.70;;;;;;4919571;29;20048;-63
2023/04/05 11:29:06;;;;;;;2.03;0.70;;;20.60;46.80;;;;;;4934928;29;19922;-63
2023/04/05 11:31:31;;;;;;;2.05;0.73;;;20.60;46.90;;;;;;4935709;29;20388;-63
2023/04/05 11:34:09;;;;;;;2.80;0.70;;;20.60;46.80;;;;;;4935240;29;20491;-63
2023/04/05 11:36:35;;;;;;;2.65;0.85;;;20.60;46.80;;;;;;4935567;29;20551;-63
2023/04/05 11:39:22;;;;;;;3.88;0.80;;;20.60;46.90;;;;;;4935500;29;20063;-63
2023/04/05 11:42:11;;;;;;;4.03;0.82;;;20.60;46.90;;;;;;4934966;29;20044;-64
2023/04/05 11:44:50;;;;;;;2.78;0.70;;;20.60;46.90;;;;;;4935586;29;20091;-64
2023/04/05 11:47:16;;;;;;;2.50;0.70;;;20.70;46.70;;;;;;4934981;29;20426;-63
2023/04/05 11:49:42;;;;;;;2.08;0.63;;;20.60;46.70;;;;;;4936811;29;20171;-62
2023/04/05 11:52:18;;;;;;;4.57;0.80;;;20.60;46.70;;;;;;4924672;29;20495;-61
2023/04/05 11:54:48;;;;;;;1.90;0.70;;;20.60;46.70;;;;;;4942086;29;20099;-62
2023/04/05 11:57:18;;;;;;;2.83;1.17;;;20.60;46.70;;;;;;4940742;29;20094;-63
2023/04/05 11:59:44;;;;;;;4.28;0.63;;;20.60;46.70;;;;;;4941779;29;20122;-64
2023/04/05 12:02:09;;;;;;;2.88;0.80;;;20.60;46.70;;;;;;4923692;29;20170;-64
2023/04/05 12:04:36;;;;;;;2.22;0.68;;;20.60;46.60;;;;;;4924773;29;20047;-63
2023/04/05 12:07:11;;;;;;;2.30;0.80;;;20.60;46.40;;;;;;4941887;29;20152;-64
2023/04/05 12:09:59;;;;;;;1.48;0.52;;;20.60;46.30;;;;;;4941006;29;20051;-64
2023/04/05 12:12:25;;;;;;;2.03;0.77;;;20.60;46.40;;;;;;4941275;29;20051;-64
2023/04/05 12:14:51;;;;;;;1.92;0.60;;;20.60;46.40;;;;;;4941573;29;20051;-63
2023/04/05 12:17:16;;;;;;;2.65;0.70;;;20.60;46.40;;;;;;4940755;29;20052;-63
2023/04/05 12:19:42;;;;;;;1.38;0.70;;;20.60;46.50;;;;;;4924403;29;20044;-63
2023/04/05 12:22:07;;;;;;;3.72;0.68;;;20.60;46.50;;;;;;4924312;29;20055;-64
2023/04/05 12:24:33;;;;;;;2.00;0.60;;;20.60;46.40;;;;;;4940903;29;20054;-63
2023/04/05 12:26:59;;;;;;;2.00;0.60;;;20.60;46.50;;;;;;4941614;29;20126;-63
2023/04/05 12:29:25;;;;;;;2.72;0.70;;;20.60;46.40;;;;;;4924527;29;20039;-63
2023/04/05 12:31:50;;;;;;;2.40;0.65;;;20.60;46.50;;;;;;4923605;29;20183;-63
2023/04/05 12:34:21;;;;;;;3.38;0.90;;;20.60;46.50;;;;;;4941168;29;20079;-63
2023/04/05 12:36:47;;;;;;;1.65;0.68;;;20.60;46.60;;;;;;4925438;29;20048;-63
2023/04/05 12:39:14;;;;;;;1.45;0.60;;;20.60;46.50;;;;;;4940406;29;20070;-63
2023/04/05 12:41:40;;;;;;;2.67;0.70;;;20.60;46.50;;;;;;4908826;29;20051;-63
2023/04/05 12:44:11;;;;;;;1.92;0.60;;;20.60;46.50;;;;;;4908294;29;20510;-63
2023/04/05 12:46:46;;;;;;;2.63;0.80;;;20.70;46.60;;;;;;4940498;29;20452;-63
2023/04/05 12:49:12;;;;;;;2.88;0.70;;;20.70;46.70;;;;;;4941254;29;20051;-63
2023/04/05 12:52:00;;;;;;;1.60;0.70;;;20.70;46.60;;;;;;4940765;29;20075;-63